createdAt,value
2022-09-14T00:00:34.394Z,987.17
2022-09-14T00:01:34.487Z,987.18
2022-09-14T00:02:34.515Z,987.17
2022-09-14T00:03:34.373Z,987.12
2022-09-14T00:04:34.443Z,987.15
2022-09-14T00:05:34.359Z,987.13
2022-09-14T00:06:34.372Z,987.19
2022-09-14T00:07:34.342Z,987.11
2022-09-14T00:08:34.327Z,987.15
2022-09-14T00:09:34.349Z,987.08
2022-09-14T00:10:34.320Z,987.07
2022-09-14T00:11:34.310Z,987.02
2022-09-14T00:12:34.301Z,987.08
2022-09-14T00:13:34.289Z,987.07
2022-09-14T00:14:34.318Z,987.04
2022-09-14T00:15:34.302Z,987.11
2022-09-14T00:16:34.342Z,986.99
2022-09-14T00:17:34.257Z,987.00
2022-09-14T00:18:34.249Z,987.02
2022-09-14T00:19:34.272Z,986.98
2022-09-14T00:20:34.246Z,987.02
2022-09-14T00:21:34.220Z,987.01
2022-09-14T00:22:34.217Z,987.02
2022-09-14T00:23:34.208Z,986.95
2022-09-14T00:24:34.266Z,986.93
2022-09-14T00:25:34.215Z,987.00
2022-09-14T00:26:34.190Z,986.99
2022-09-14T00:27:34.179Z,987.00
2022-09-14T00:28:34.173Z,986.95
2022-09-14T00:29:34.167Z,986.89
2022-09-14T00:30:34.183Z,986.92
2022-09-14T00:31:34.179Z,986.90
2022-09-14T00:32:34.162Z,986.83
2022-09-14T00:33:34.131Z,986.78
2022-09-14T00:34:34.122Z,986.79
2022-09-14T00:35:34.175Z,986.82
2022-09-14T00:36:34.128Z,986.77
2022-09-14T00:37:34.107Z,986.73
2022-09-14T00:38:34.093Z,986.73
2022-09-14T00:39:34.090Z,986.72
2022-09-14T00:40:34.111Z,986.61
2022-09-14T00:41:34.109Z,986.67
2022-09-14T00:42:34.062Z,986.56
2022-09-14T00:43:34.056Z,986.62
2022-09-14T00:44:34.043Z,986.59
2022-09-14T00:45:34.118Z,986.53
2022-09-14T00:46:34.045Z,986.56
2022-09-14T00:47:34.024Z,986.62
2022-09-14T00:48:34.014Z,986.54
2022-09-14T00:49:34.006Z,986.59
2022-09-14T00:50:34.064Z,986.54
2022-09-14T00:51:33.993Z,986.61
2022-09-14T00:52:33.988Z,986.53
2022-09-14T00:53:33.994Z,986.50
2022-09-14T00:54:34.007Z,986.52
2022-09-14T00:55:33.990Z,986.50
2022-09-14T00:56:33.956Z,986.51
2022-09-14T00:57:33.950Z,986.55
2022-09-14T00:58:33.932Z,986.51
2022-09-14T00:59:33.939Z,986.48
2022-09-14T01:00:33.949Z,986.51
2022-09-14T01:01:33.958Z,986.49
2022-09-14T01:02:33.970Z,986.55
2022-09-14T01:03:33.904Z,986.60
2022-09-14T01:04:33.922Z,986.54
2022-09-14T01:05:33.920Z,986.51
2022-09-14T01:06:33.886Z,986.52
2022-09-14T01:07:33.884Z,986.47
2022-09-14T01:08:33.862Z,986.50
2022-09-14T01:09:33.867Z,986.44
2022-09-14T01:10:33.878Z,986.47
2022-09-14T01:11:33.846Z,986.52
2022-09-14T01:12:33.837Z,986.51
2022-09-14T01:13:33.863Z,986.42
2022-09-14T01:14:33.833Z,986.41
2022-09-14T01:15:33.838Z,986.46
2022-09-14T01:16:33.913Z,986.43
2022-09-14T01:17:33.799Z,986.46
2022-09-14T01:18:33.786Z,986.45
2022-09-14T01:19:33.778Z,986.40
2022-09-14T01:20:33.834Z,986.37
2022-09-14T01:21:33.762Z,986.35
2022-09-14T01:22:33.760Z,986.34
2022-09-14T01:23:33.753Z,986.29
2022-09-14T01:24:33.738Z,986.28
2022-09-14T01:25:33.762Z,986.29
2022-09-14T01:26:33.727Z,986.36
2022-09-14T01:27:33.733Z,986.31
2022-09-14T01:28:33.707Z,986.28
2022-09-14T01:29:33.696Z,986.29
2022-09-14T01:30:33.717Z,986.26
2022-09-14T01:31:33.759Z,986.21
2022-09-14T01:32:33.712Z,986.21
2022-09-14T01:33:33.668Z,986.17
2022-09-14T01:34:33.658Z,986.27
2022-09-14T01:35:33.677Z,986.22
2022-09-14T01:36:33.655Z,986.19
2022-09-14T01:37:33.636Z,986.21
2022-09-14T01:38:33.633Z,986.20
2022-09-14T01:39:33.636Z,986.18
2022-09-14T01:40:33.692Z,986.28
2022-09-14T01:41:33.622Z,986.21
2022-09-14T01:42:33.603Z,986.17
2022-09-14T01:43:36.706Z,986.16
2022-09-14T01:44:34.621Z,986.20
2022-09-14T01:45:33.642Z,986.17
2022-09-14T01:46:33.573Z,986.19
2022-09-14T01:47:33.564Z,986.16
2022-09-14T01:48:33.555Z,986.13
2022-09-14T01:49:34.591Z,986.19
2022-09-14T01:50:33.530Z,986.20
2022-09-14T01:51:34.538Z,986.13
2022-09-14T01:52:33.525Z,986.14
2022-09-14T01:53:33.521Z,986.18
2022-09-14T01:54:33.522Z,986.16
2022-09-14T01:55:33.535Z,986.21
2022-09-14T01:56:33.497Z,986.27
2022-09-14T01:57:34.492Z,986.16
2022-09-14T01:58:33.503Z,986.20
2022-09-14T01:59:33.473Z,986.17
2022-09-14T02:00:33.580Z,986.18
2022-09-14T02:01:33.461Z,986.20
2022-09-14T02:02:33.542Z,986.13
2022-09-14T02:03:33.441Z,986.12
2022-09-14T02:04:33.503Z,986.11
2022-09-14T02:05:33.433Z,986.21
2022-09-14T02:06:33.423Z,986.15
2022-09-14T02:07:33.416Z,986.16
2022-09-14T02:08:33.407Z,986.16
2022-09-14T02:09:33.454Z,986.13
2022-09-14T02:10:33.390Z,986.13
2022-09-14T02:11:33.385Z,986.18
2022-09-14T02:12:33.381Z,986.15
2022-09-14T02:13:33.369Z,986.20
2022-09-14T02:14:33.381Z,986.20
2022-09-14T02:15:33.349Z,986.17
2022-09-14T02:16:33.371Z,986.11
2022-09-14T02:17:33.342Z,986.16
2022-09-14T02:18:33.323Z,986.16
2022-09-14T02:19:33.380Z,986.12
2022-09-14T02:20:33.477Z,986.11
2022-09-14T02:21:33.340Z,986.14
2022-09-14T02:22:33.352Z,986.14
2022-09-14T02:23:33.287Z,986.10
2022-09-14T02:24:33.334Z,986.07
2022-09-14T02:25:33.279Z,986.00
2022-09-14T02:26:33.277Z,985.96
2022-09-14T02:27:33.287Z,985.91
2022-09-14T02:28:33.252Z,985.95
2022-09-14T02:29:33.269Z,985.91
2022-09-14T02:30:33.239Z,985.91
2022-09-14T02:31:33.288Z,985.90
2022-09-14T02:32:33.286Z,985.90
2022-09-14T02:33:33.215Z,985.87
2022-09-14T02:34:33.227Z,985.94
2022-09-14T02:35:34.199Z,985.98
2022-09-14T02:36:33.193Z,985.92
2022-09-14T02:37:33.178Z,985.94
2022-09-14T02:38:33.204Z,985.96
2022-09-14T02:39:33.193Z,985.96
2022-09-14T02:40:33.205Z,985.96
2022-09-14T02:41:33.182Z,985.96
2022-09-14T02:42:33.138Z,985.98
2022-09-14T02:43:33.132Z,985.94
2022-09-14T02:44:33.190Z,985.90
2022-09-14T02:45:33.117Z,985.91
2022-09-14T02:46:33.176Z,985.83
2022-09-14T02:47:33.097Z,985.83
2022-09-14T02:48:33.088Z,985.79
2022-09-14T02:49:33.151Z,985.76
2022-09-14T02:50:33.082Z,985.75
2022-09-14T02:51:33.068Z,985.61
2022-09-14T02:52:33.064Z,985.65
2022-09-14T02:53:33.125Z,985.65
2022-09-14T02:54:33.049Z,985.71
2022-09-14T02:55:33.061Z,985.68
2022-09-14T02:56:33.062Z,985.63
2022-09-14T02:57:33.062Z,985.65
2022-09-14T02:58:34.012Z,985.70
2022-09-14T02:59:33.001Z,985.71
2022-09-14T03:00:33.055Z,985.69
2022-09-14T03:01:33.039Z,985.61
2022-09-14T03:02:33.016Z,985.59
2022-09-14T03:03:35.616Z,985.59
2022-09-14T03:04:34.055Z,985.62
2022-09-14T03:05:32.963Z,985.63
2022-09-14T03:06:32.946Z,985.56
2022-09-14T03:07:32.937Z,985.62
2022-09-14T03:08:32.937Z,985.58
2022-09-14T03:09:33.256Z,985.68
2022-09-14T03:10:32.920Z,985.71
2022-09-14T03:11:32.914Z,985.68
2022-09-14T03:12:32.896Z,985.70
2022-09-14T03:13:32.889Z,985.63
2022-09-14T03:14:32.916Z,985.66
2022-09-14T03:15:32.877Z,985.63
2022-09-14T03:16:32.919Z,985.61
2022-09-14T03:17:32.864Z,985.60
2022-09-14T03:18:32.856Z,985.60
2022-09-14T03:19:32.875Z,985.53
2022-09-14T03:20:32.905Z,985.58
2022-09-14T03:21:32.827Z,985.59
2022-09-14T03:22:32.823Z,985.54
2022-09-14T03:23:32.814Z,985.52
2022-09-14T03:24:32.807Z,985.57
2022-09-14T03:25:32.830Z,985.53
2022-09-14T03:26:32.787Z,985.59
2022-09-14T03:27:32.787Z,985.59
2022-09-14T03:28:32.777Z,985.62
2022-09-14T03:29:32.765Z,985.56
2022-09-14T03:30:32.786Z,985.54
2022-09-14T03:31:32.829Z,985.49
2022-09-14T03:32:32.737Z,985.54
2022-09-14T03:33:32.732Z,985.50
2022-09-14T03:34:32.734Z,985.48
2022-09-14T03:35:32.747Z,985.47
2022-09-14T03:36:32.759Z,985.42
2022-09-14T03:37:33.700Z,985.48
2022-09-14T03:38:32.695Z,985.40
2022-09-14T03:39:32.687Z,985.45
2022-09-14T03:40:32.746Z,985.42
2022-09-14T03:41:32.704Z,985.48
2022-09-14T03:42:32.663Z,985.46
2022-09-14T03:43:32.649Z,985.47
2022-09-14T03:44:32.648Z,985.46
2022-09-14T03:45:32.668Z,985.40
2022-09-14T03:46:32.677Z,985.43
2022-09-14T03:47:32.626Z,985.37
2022-09-14T03:48:32.636Z,985.38
2022-09-14T03:49:32.613Z,985.40
2022-09-14T03:50:32.630Z,985.35
2022-09-14T03:51:32.616Z,985.35
2022-09-14T03:52:32.605Z,985.35
2022-09-14T03:53:32.581Z,985.34
2022-09-14T03:54:32.571Z,985.35
2022-09-14T03:55:32.615Z,985.34
2022-09-14T03:56:32.555Z,985.33
2022-09-14T03:57:32.550Z,985.37
2022-09-14T03:58:32.543Z,985.37
2022-09-14T03:59:32.534Z,985.38
2022-09-14T04:00:32.564Z,985.37
2022-09-14T04:01:32.629Z,985.32
2022-09-14T04:02:32.617Z,985.35
2022-09-14T04:03:32.502Z,985.35
2022-09-14T04:04:32.493Z,985.30
2022-09-14T04:05:32.513Z,985.31
2022-09-14T04:06:32.475Z,985.30
2022-09-14T04:07:32.470Z,985.29
2022-09-14T04:08:32.460Z,985.29
2022-09-14T04:09:32.491Z,985.28
2022-09-14T04:10:32.469Z,985.29
2022-09-14T04:11:32.445Z,985.17
2022-09-14T04:12:32.433Z,985.21
2022-09-14T04:13:32.421Z,985.18
2022-09-14T04:14:32.423Z,985.12
2022-09-14T04:15:32.440Z,985.15
2022-09-14T04:16:32.582Z,985.19
2022-09-14T04:17:32.391Z,985.18
2022-09-14T04:18:32.387Z,985.15
2022-09-14T04:19:32.383Z,985.18
2022-09-14T04:20:32.413Z,985.10
2022-09-14T04:21:32.455Z,985.12
2022-09-14T04:22:32.353Z,985.19
2022-09-14T04:23:32.345Z,985.09
2022-09-14T04:24:32.399Z,985.15
2022-09-14T04:25:32.783Z,985.12
2022-09-14T04:26:32.444Z,985.11
2022-09-14T04:27:32.324Z,985.12
2022-09-14T04:28:32.323Z,985.18
2022-09-14T04:29:32.371Z,985.13
2022-09-14T04:30:32.330Z,985.13
2022-09-14T04:31:32.363Z,985.13
2022-09-14T04:32:34.507Z,985.17
2022-09-14T04:33:33.269Z,985.18
2022-09-14T04:34:32.262Z,985.16
2022-09-14T04:35:32.258Z,985.15
2022-09-14T04:36:32.289Z,985.21
2022-09-14T04:37:32.263Z,985.13
2022-09-14T04:38:32.233Z,985.15
2022-09-14T04:39:32.230Z,985.17
2022-09-14T04:40:32.342Z,985.14
2022-09-14T04:41:32.211Z,985.20
2022-09-14T04:42:32.206Z,985.16
2022-09-14T04:43:32.228Z,985.11
2022-09-14T04:44:32.196Z,985.18
2022-09-14T04:45:32.188Z,985.14
2022-09-14T04:46:32.311Z,985.10
2022-09-14T04:47:32.222Z,985.12
2022-09-14T04:48:32.158Z,985.05
2022-09-14T04:49:32.153Z,985.12
2022-09-14T04:50:32.141Z,985.08
2022-09-14T04:51:32.158Z,985.03
2022-09-14T04:52:32.125Z,985.03
2022-09-14T04:53:32.121Z,985.04
2022-09-14T04:54:32.109Z,985.04
2022-09-14T04:55:32.098Z,985.03
2022-09-14T04:56:32.137Z,985.05
2022-09-14T04:57:32.096Z,985.03
2022-09-14T04:58:32.106Z,984.96
2022-09-14T04:59:32.071Z,984.98
2022-09-14T05:00:32.066Z,984.94
2022-09-14T05:01:32.135Z,984.91
2022-09-14T05:02:32.077Z,984.93
2022-09-14T05:03:32.055Z,984.87
2022-09-14T05:04:32.043Z,984.93
2022-09-14T05:05:32.068Z,984.88
2022-09-14T05:06:32.050Z,984.88
2022-09-14T05:07:32.025Z,984.82
2022-09-14T05:08:32.024Z,984.83
2022-09-14T05:09:32.036Z,984.86
2022-09-14T05:10:32.017Z,984.90
2022-09-14T05:11:32.015Z,984.83
2022-09-14T05:12:31.966Z,984.78
2022-09-14T05:13:31.963Z,984.79
2022-09-14T05:14:31.958Z,984.86
2022-09-14T05:15:32.055Z,984.84
2022-09-14T05:16:31.963Z,984.84
2022-09-14T05:17:31.928Z,984.84
2022-09-14T05:18:31.926Z,984.87
2022-09-14T05:19:31.912Z,984.85
2022-09-14T05:20:31.903Z,984.81
2022-09-14T05:21:31.923Z,984.82
2022-09-14T05:22:31.908Z,984.85
2022-09-14T05:23:31.944Z,984.85
2022-09-14T05:24:31.886Z,984.85
2022-09-14T05:25:31.881Z,984.79
2022-09-14T05:26:31.905Z,984.83
2022-09-14T05:27:31.853Z,984.80
2022-09-14T05:28:31.843Z,984.84
2022-09-14T05:29:31.895Z,984.83
2022-09-14T05:30:31.826Z,984.81
2022-09-14T05:31:31.907Z,984.77
2022-09-14T05:32:31.840Z,984.85
2022-09-14T05:33:31.803Z,984.81
2022-09-14T05:34:31.806Z,984.85
2022-09-14T05:35:31.819Z,984.79
2022-09-14T05:36:31.816Z,984.81
2022-09-14T05:37:31.770Z,984.83
2022-09-14T05:38:31.769Z,984.71
2022-09-14T05:39:31.769Z,984.76
2022-09-14T05:40:31.852Z,984.84
2022-09-14T05:41:31.782Z,984.80
2022-09-14T05:42:31.741Z,984.82
2022-09-14T05:43:31.737Z,984.88
2022-09-14T05:44:31.741Z,984.81
2022-09-14T05:45:31.720Z,984.76
2022-09-14T05:46:31.777Z,984.76
2022-09-14T05:47:34.801Z,984.77
2022-09-14T05:48:32.691Z,984.76
2022-09-14T05:49:31.707Z,984.75
2022-09-14T05:50:31.686Z,984.70
2022-09-14T05:51:31.671Z,984.80
2022-09-14T05:52:31.682Z,984.77
2022-09-14T05:53:31.663Z,984.75
2022-09-14T05:54:31.640Z,984.78
2022-09-14T05:55:31.626Z,984.72
2022-09-14T05:56:31.732Z,984.71
2022-09-14T05:57:31.732Z,984.60
2022-09-14T05:58:31.602Z,984.65
2022-09-14T05:59:31.605Z,984.64
2022-09-14T06:00:32.596Z,984.67
2022-09-14T06:01:31.631Z,984.66
2022-09-14T06:02:31.727Z,984.72
2022-09-14T06:03:31.573Z,984.71
2022-09-14T06:04:31.562Z,984.68
2022-09-14T06:05:31.620Z,984.71
2022-09-14T06:06:31.548Z,984.76
2022-09-14T06:07:31.572Z,984.72
2022-09-14T06:08:31.532Z,984.71
2022-09-14T06:09:33.297Z,984.67
2022-09-14T06:10:32.517Z,984.66
2022-09-14T06:11:31.513Z,984.69
2022-09-14T06:12:31.550Z,984.70
2022-09-14T06:13:31.515Z,984.73
2022-09-14T06:14:31.491Z,984.63
2022-09-14T06:15:31.492Z,984.70
2022-09-14T06:16:31.472Z,984.73
2022-09-14T06:17:31.529Z,984.73
2022-09-14T06:18:31.462Z,984.70
2022-09-14T06:19:31.442Z,984.71
2022-09-14T06:20:31.439Z,984.74
2022-09-14T06:21:31.430Z,984.63
2022-09-14T06:22:31.487Z,984.64
2022-09-14T06:23:31.434Z,984.68
2022-09-14T06:24:31.410Z,984.63
2022-09-14T06:25:31.406Z,984.65
2022-09-14T06:26:31.395Z,984.65
2022-09-14T06:27:31.412Z,984.64
2022-09-14T06:28:31.379Z,984.67
2022-09-14T06:29:31.464Z,984.61
2022-09-14T06:30:31.361Z,984.64
2022-09-14T06:31:31.344Z,984.61
2022-09-14T06:32:32.375Z,984.60
2022-09-14T06:33:31.416Z,984.57
2022-09-14T06:34:31.337Z,984.59
2022-09-14T06:35:31.322Z,984.58
2022-09-14T06:36:31.313Z,984.61
2022-09-14T06:37:31.332Z,984.62
2022-09-14T06:38:31.298Z,984.58
2022-09-14T06:39:31.292Z,984.58
2022-09-14T06:40:31.320Z,984.57
2022-09-14T06:41:31.278Z,984.58
2022-09-14T06:42:31.289Z,984.59
2022-09-14T06:43:31.267Z,984.54
2022-09-14T06:44:31.260Z,984.55
2022-09-14T06:45:31.262Z,984.57
2022-09-14T06:46:31.237Z,984.52
2022-09-14T06:47:31.266Z,984.57
2022-09-14T06:48:31.273Z,984.50
2022-09-14T06:49:31.218Z,984.47
2022-09-14T06:50:31.204Z,984.51
2022-09-14T06:51:31.196Z,984.57
2022-09-14T06:52:33.791Z,984.58
2022-09-14T06:53:32.184Z,984.57
2022-09-14T06:54:31.175Z,984.55
2022-09-14T06:55:31.171Z,984.56
2022-09-14T06:56:31.213Z,984.57
2022-09-14T06:57:31.150Z,984.62
2022-09-14T06:58:31.149Z,984.55
2022-09-14T06:59:31.140Z,984.61
2022-09-14T07:00:31.137Z,984.59
2022-09-14T07:01:31.150Z,984.55
2022-09-14T07:02:31.154Z,984.61
2022-09-14T07:03:31.103Z,984.55
2022-09-14T07:04:31.095Z,984.63
2022-09-14T07:05:31.099Z,984.60
2022-09-14T07:06:31.159Z,984.65
2022-09-14T07:07:31.089Z,984.64
2022-09-14T07:08:31.073Z,984.65
2022-09-14T07:09:31.059Z,984.64
2022-09-14T07:10:31.052Z,984.65
2022-09-14T07:11:31.073Z,984.63
2022-09-14T07:12:31.041Z,984.61
2022-09-14T07:13:31.033Z,984.68
2022-09-14T07:14:32.485Z,984.68
2022-09-14T07:15:32.013Z,984.59
2022-09-14T07:16:31.029Z,984.67
2022-09-14T07:17:30.991Z,984.59
2022-09-14T07:18:30.983Z,984.62
2022-09-14T07:19:30.968Z,984.68
2022-09-14T07:20:31.991Z,984.64
2022-09-14T07:21:30.996Z,984.61
2022-09-14T07:22:30.957Z,984.63
2022-09-14T07:23:30.944Z,984.60
2022-09-14T07:24:30.934Z,984.59
2022-09-14T07:25:30.930Z,984.64
2022-09-14T07:26:30.948Z,984.61
2022-09-14T07:27:30.919Z,984.63
2022-09-14T07:28:32.991Z,984.64
2022-09-14T07:29:30.904Z,984.61
2022-09-14T07:30:30.926Z,984.62
2022-09-14T07:31:30.957Z,984.58
2022-09-14T07:32:30.880Z,984.61
2022-09-14T07:33:30.869Z,984.56
2022-09-14T07:34:30.867Z,984.58
2022-09-14T07:35:30.847Z,984.65
2022-09-14T07:36:34.574Z,984.65
2022-09-14T07:37:31.828Z,984.69
2022-09-14T07:38:51.092Z,984.68
2022-09-14T07:39:32.815Z,984.64
2022-09-14T07:40:30.836Z,984.71
2022-09-14T07:41:30.803Z,984.69
2022-09-14T07:42:30.813Z,984.64
2022-09-14T07:43:30.783Z,984.62
2022-09-14T07:44:30.776Z,984.68
2022-09-14T07:45:30.804Z,984.62
2022-09-14T07:46:30.782Z,984.68
2022-09-14T07:47:30.748Z,984.64
2022-09-14T07:48:30.748Z,984.64
2022-09-14T07:49:30.750Z,984.66
2022-09-14T07:50:30.731Z,984.63
2022-09-14T07:51:30.718Z,984.61
2022-09-14T07:52:30.730Z,984.62
2022-09-14T07:53:30.719Z,984.65
2022-09-14T07:54:30.695Z,984.61
2022-09-14T07:55:30.685Z,984.58
2022-09-14T07:56:30.700Z,984.63
2022-09-14T07:57:54.624Z,984.57
2022-09-14T07:58:32.662Z,984.56
2022-09-14T07:59:36.162Z,984.61
2022-09-14T08:00:32.653Z,984.59
2022-09-14T08:01:30.743Z,984.59
2022-09-14T08:02:30.695Z,984.63
2022-09-14T08:03:30.635Z,984.58
2022-09-14T08:04:30.630Z,984.61
2022-09-14T08:05:30.610Z,984.58
2022-09-14T08:06:30.600Z,984.64
2022-09-14T08:07:30.640Z,984.64
2022-09-14T08:08:30.587Z,984.61
2022-09-14T08:09:30.575Z,984.61
2022-09-14T08:10:30.570Z,984.58
2022-09-14T08:11:30.571Z,984.58
2022-09-14T08:12:30.584Z,984.58
2022-09-14T08:13:30.554Z,984.65
2022-09-14T08:14:30.544Z,984.62
2022-09-14T08:15:30.532Z,984.62
2022-09-14T08:16:30.580Z,984.62
2022-09-14T08:17:30.547Z,984.65
2022-09-14T08:18:30.512Z,984.59
2022-09-14T08:19:30.503Z,984.58
2022-09-14T08:20:30.491Z,984.58
2022-09-14T08:21:30.486Z,984.58
2022-09-14T08:22:30.501Z,984.64
2022-09-14T08:23:30.470Z,984.58
2022-09-14T08:24:30.520Z,984.57
2022-09-14T08:25:30.453Z,984.48
2022-09-14T08:26:30.447Z,984.50
2022-09-14T08:27:30.468Z,984.52
2022-09-14T08:28:30.427Z,984.50
2022-09-14T08:29:30.424Z,984.46
2022-09-14T08:30:30.417Z,984.44
2022-09-14T08:31:30.434Z,984.51
2022-09-14T08:32:30.426Z,984.52
2022-09-14T08:33:30.392Z,984.53
2022-09-14T08:34:30.388Z,984.51
2022-09-14T08:35:53.995Z,984.48
2022-09-14T08:36:32.368Z,984.48
2022-09-14T08:37:30.383Z,984.47
2022-09-14T08:38:30.346Z,984.46
2022-09-14T08:39:30.340Z,984.50
2022-09-14T08:40:30.363Z,984.50
2022-09-14T08:41:30.331Z,984.54
2022-09-14T08:42:30.346Z,984.44
2022-09-14T08:43:30.308Z,984.43
2022-09-14T08:44:30.302Z,984.41
2022-09-14T08:45:30.386Z,984.44
2022-09-14T08:46:30.301Z,984.36
2022-09-14T08:47:30.309Z,984.42
2022-09-14T08:48:30.274Z,984.46
2022-09-14T08:49:30.262Z,984.39
2022-09-14T08:50:30.251Z,984.35
2022-09-14T08:51:30.248Z,984.37
2022-09-14T08:52:30.276Z,984.39
2022-09-14T08:53:30.231Z,984.39
2022-09-14T08:54:30.251Z,984.41
2022-09-14T08:55:30.223Z,984.40
2022-09-14T08:56:30.210Z,984.43
2022-09-14T08:57:30.235Z,984.36
2022-09-14T08:58:30.200Z,984.38
2022-09-14T08:59:30.191Z,984.45
2022-09-14T09:00:30.312Z,984.43
2022-09-14T09:01:30.171Z,984.37
2022-09-14T09:02:30.184Z,984.49
2022-09-14T09:03:30.224Z,984.46
2022-09-14T09:04:30.149Z,984.47
2022-09-14T09:05:30.142Z,984.44
2022-09-14T09:06:30.135Z,984.49
2022-09-14T09:07:30.160Z,984.50
2022-09-14T09:08:30.115Z,984.44
2022-09-14T09:09:30.111Z,984.51
2022-09-14T09:10:30.107Z,984.54
2022-09-14T09:11:30.089Z,984.54
2022-09-14T09:12:30.136Z,984.50
2022-09-14T09:13:30.077Z,984.53
2022-09-14T09:14:30.079Z,984.54
2022-09-14T09:15:30.067Z,984.53
2022-09-14T09:16:30.084Z,984.48
2022-09-14T09:17:30.080Z,984.47
2022-09-14T09:18:30.037Z,984.52
2022-09-14T09:19:30.038Z,984.48
2022-09-14T09:20:30.023Z,984.42
2022-09-14T09:21:30.010Z,984.46
2022-09-14T09:22:30.026Z,984.50
2022-09-14T09:23:29.996Z,984.38
2022-09-14T09:24:31.097Z,984.45
2022-09-14T09:25:29.974Z,984.37
2022-09-14T09:26:29.983Z,984.42
2022-09-14T09:27:29.995Z,984.44
2022-09-14T09:28:29.960Z,984.42
2022-09-14T09:29:29.949Z,984.42
2022-09-14T09:30:29.946Z,984.42
2022-09-14T09:31:29.965Z,984.47
2022-09-14T09:32:29.966Z,984.49
2022-09-14T09:33:29.930Z,984.49
2022-09-14T09:34:29.929Z,984.55
2022-09-14T09:35:29.961Z,984.57
2022-09-14T09:36:29.887Z,984.57
2022-09-14T09:37:30.935Z,984.55
2022-09-14T09:38:29.887Z,984.62
2022-09-14T09:39:29.899Z,984.60
2022-09-14T09:40:29.990Z,984.56
2022-09-14T09:41:29.854Z,984.58
2022-09-14T09:42:29.895Z,984.55
2022-09-14T09:43:48.442Z,984.51
2022-09-14T09:44:31.830Z,984.56
2022-09-14T09:45:29.844Z,984.58
2022-09-14T09:46:29.847Z,984.55
2022-09-14T09:47:29.813Z,984.63
2022-09-14T09:48:29.833Z,984.51
2022-09-14T09:49:29.806Z,984.53
2022-09-14T09:50:29.772Z,984.51
2022-09-14T09:51:30.783Z,984.49
2022-09-14T09:52:29.775Z,984.43
2022-09-14T09:53:29.787Z,984.32
2022-09-14T09:54:29.762Z,984.36
2022-09-14T09:55:29.749Z,984.31
2022-09-14T09:56:29.741Z,984.22
2022-09-14T09:57:29.737Z,984.23
2022-09-14T09:58:29.754Z,984.29
2022-09-14T09:59:29.714Z,984.31
2022-09-14T10:00:29.721Z,984.35
2022-09-14T10:01:29.894Z,984.32
2022-09-14T10:02:29.742Z,984.40
2022-09-14T10:03:29.735Z,984.34
2022-09-14T10:04:29.688Z,984.37
2022-09-14T10:05:29.669Z,984.43
2022-09-14T10:06:29.664Z,984.37
2022-09-14T10:07:29.659Z,984.37
2022-09-14T10:08:29.666Z,984.40
2022-09-14T10:09:29.637Z,984.36
2022-09-14T10:10:29.633Z,984.35
2022-09-14T10:11:29.616Z,984.30
2022-09-14T10:12:29.621Z,984.31
2022-09-14T10:13:29.644Z,984.28
2022-09-14T10:14:29.591Z,984.27
2022-09-14T10:15:29.582Z,984.24
2022-09-14T10:16:29.698Z,984.20
2022-09-14T10:17:29.583Z,984.17
2022-09-14T10:18:29.591Z,984.21
2022-09-14T10:19:29.558Z,984.20
2022-09-14T10:20:29.552Z,984.26
2022-09-14T10:21:29.553Z,984.22
2022-09-14T10:22:29.534Z,984.23
2022-09-14T10:23:29.552Z,984.26
2022-09-14T10:24:29.519Z,984.19
2022-09-14T10:25:29.523Z,984.19
2022-09-14T10:26:29.492Z,984.16
2022-09-14T10:27:33.255Z,984.13
2022-09-14T10:28:30.517Z,984.18
2022-09-14T10:29:29.486Z,984.16
2022-09-14T10:30:29.478Z,984.16
2022-09-14T10:31:29.512Z,984.07
2022-09-14T10:32:29.466Z,984.08
2022-09-14T10:33:29.481Z,984.10
2022-09-14T10:34:29.443Z,984.13
2022-09-14T10:35:29.456Z,984.08
2022-09-14T10:36:29.429Z,984.04
2022-09-14T10:37:29.425Z,984.07
2022-09-14T10:38:29.442Z,984.09
2022-09-14T10:39:29.414Z,984.10
2022-09-14T10:40:29.457Z,984.01
2022-09-14T10:41:29.396Z,984.07
2022-09-14T10:42:29.382Z,984.08
2022-09-14T10:43:31.308Z,984.15
2022-09-14T10:44:29.369Z,984.10
2022-09-14T10:45:29.364Z,984.12
2022-09-14T10:46:29.380Z,984.16
2022-09-14T10:47:29.343Z,984.09
2022-09-14T10:48:29.367Z,984.13
2022-09-14T10:49:29.360Z,984.07
2022-09-14T10:50:29.325Z,984.08
2022-09-14T10:51:29.313Z,984.07
2022-09-14T10:52:29.305Z,984.04
2022-09-14T10:53:29.413Z,983.99
2022-09-14T10:54:29.282Z,983.97
2022-09-14T10:55:29.284Z,983.95
2022-09-14T10:56:29.276Z,983.93
2022-09-14T10:57:29.264Z,983.86
2022-09-14T10:58:29.294Z,983.85
2022-09-14T10:59:29.247Z,983.91
2022-09-14T11:00:29.238Z,983.86
2022-09-14T11:01:29.272Z,983.85
2022-09-14T11:02:29.376Z,983.83
2022-09-14T11:03:29.241Z,983.90
2022-09-14T11:04:29.213Z,983.87
2022-09-14T11:05:29.194Z,983.90
2022-09-14T11:06:29.196Z,983.80
2022-09-14T11:07:29.186Z,983.77
2022-09-14T11:08:29.222Z,983.84
2022-09-14T11:09:29.187Z,983.80
2022-09-14T11:10:29.161Z,983.80
2022-09-14T11:11:29.146Z,983.81
2022-09-14T11:12:29.147Z,983.83
2022-09-14T11:13:29.161Z,983.80
2022-09-14T11:14:29.132Z,983.77
2022-09-14T11:15:29.125Z,983.69
2022-09-14T11:16:29.183Z,983.67
2022-09-14T11:17:29.108Z,983.64
2022-09-14T11:18:29.140Z,983.74
2022-09-14T11:19:29.092Z,983.69
2022-09-14T11:20:29.083Z,983.68
2022-09-14T11:21:29.082Z,983.64
2022-09-14T11:22:29.070Z,983.69
2022-09-14T11:23:29.090Z,983.69
2022-09-14T11:24:29.083Z,983.71
2022-09-14T11:25:29.048Z,983.68
2022-09-14T11:26:29.042Z,983.60
2022-09-14T11:27:29.029Z,983.54
2022-09-14T11:28:29.024Z,983.56
2022-09-14T11:29:29.052Z,983.57
2022-09-14T11:30:29.012Z,983.56
2022-09-14T11:31:29.051Z,983.61
2022-09-14T11:32:28.991Z,983.52
2022-09-14T11:33:31.244Z,983.63
2022-09-14T11:34:30.001Z,983.61
2022-09-14T11:35:28.969Z,983.68
2022-09-14T11:36:28.964Z,983.64
2022-09-14T11:37:28.954Z,983.61
2022-09-14T11:38:28.950Z,983.61
2022-09-14T11:39:28.960Z,983.65
2022-09-14T11:40:29.078Z,983.65
2022-09-14T11:41:28.926Z,983.69
2022-09-14T11:42:28.911Z,983.69
2022-09-14T11:43:28.942Z,983.61
2022-09-14T11:44:28.943Z,983.59
2022-09-14T11:45:28.891Z,983.61
2022-09-14T11:46:28.934Z,983.55
2022-09-14T11:47:28.876Z,983.50
2022-09-14T11:48:44.340Z,983.59
2022-09-14T11:49:30.876Z,983.53
2022-09-14T11:50:28.852Z,983.55
2022-09-14T11:51:28.843Z,983.51
2022-09-14T11:52:28.902Z,983.53
2022-09-14T11:53:28.830Z,983.58
2022-09-14T11:54:28.885Z,983.51
2022-09-14T11:55:28.820Z,983.55
2022-09-14T11:56:28.819Z,983.53
2022-09-14T11:57:28.803Z,983.54
2022-09-14T11:58:29.667Z,983.56
2022-09-14T11:59:28.786Z,983.48
2022-09-14T12:00:28.778Z,983.47
2022-09-14T12:01:28.776Z,983.50
2022-09-14T12:02:28.799Z,983.57
2022-09-14T12:03:28.862Z,983.53
2022-09-14T12:04:28.751Z,983.46
2022-09-14T12:05:28.733Z,983.53
2022-09-14T12:06:28.729Z,983.54
2022-09-14T12:07:28.722Z,983.46
2022-09-14T12:08:28.748Z,983.50
2022-09-14T12:09:28.707Z,983.45
2022-09-14T12:10:28.703Z,983.49
2022-09-14T12:11:28.697Z,983.45
2022-09-14T12:12:28.686Z,983.51
2022-09-14T12:13:28.677Z,983.50
2022-09-14T12:14:28.728Z,983.51
2022-09-14T12:15:28.828Z,983.52
2022-09-14T12:16:31.604Z,983.52
2022-09-14T12:17:45.945Z,983.48
2022-09-14T12:18:30.671Z,983.48
2022-09-14T12:19:28.640Z,983.47
2022-09-14T12:20:28.691Z,983.49
2022-09-14T12:21:28.624Z,983.44
2022-09-14T12:22:28.617Z,983.41
2022-09-14T12:23:28.608Z,983.56
2022-09-14T12:24:28.704Z,983.47
2022-09-14T12:25:28.590Z,983.49
2022-09-14T12:26:28.585Z,983.49
2022-09-14T12:27:28.574Z,983.52
2022-09-14T12:28:28.576Z,983.56